sensor_id;sensor_type;location;lat;lon;timestamp;P1;durP1;ratioP1;P2;durP2;ratioP2
78322;SDS011;67583;50.616;-3.404;2023-06-22T00:00:50;8.13;;;4.78;;
78322;SDS011;67583;50.616;-3.404;2023-06-22T00:03:19;6.93;;;4.95;;
78322;SDS011;67583;50.616;-3.404;2023-06-22T00:05:47;8.18;;;4.45;;
78322;SDS011;67583;50.616;-3.404;2023-06-22T00:08:13;6.47;;;4.78;;
78322;SDS011;67583;50.616;-3.404;2023-06-22T00:10:38;9.00;;;5.13;;
78322;SDS011;67583;50.616;-3.404;2023-06-22T00:13:05;6.80;;;4.90;;
78322;SDS011;67583;50.616;-3.404;2023-06-22T00:15:31;9.15;;;4.60;;
78322;SDS011;67583;50.616;-3.404;2023-06-22T00:17:57;6.13;;;4.40;;
78322;SDS011;67583;50.616;-3.404;2023-06-22T00:20:23;7.85;;;4.53;;
78322;SDS011;67583;50.616;-3.404;2023-06-22T00:22:53;6.93;;;4.93;;
78322;SDS011;67583;50.616;-3.404;2023-06-22T00:25:21;9.23;;;5.95;;
78322;SDS011;67583;50.616;-3.404;2023-06-22T00:27:47;6.35;;;5.03;;
78322;SDS011;67583;50.616;-3.404;2023-06-22T00:30:13;9.25;;;5.57;;
78322;SDS011;67583;50.616;-3.404;2023-06-22T00:32:40;6.78;;;4.50;;
78322;SDS011;67583;50.616;-3.404;2023-06-22T00:35:05;10.25;;;5.20;;
78322;SDS011;67583;50.616;-3.404;2023-06-22T00:37:31;9.60;;;5.18;;
78322;SDS011;67583;50.616;-3.404;2023-06-22T00:39:56;8.80;;;5.40;;
78322;SDS011;67583;50.616;-3.404;2023-06-22T00:42:22;6.80;;;4.78;;
78322;SDS011;67583;50.616;-3.404;2023-06-22T00:44:47;7.93;;;5.47;;
78322;SDS011;67583;50.616;-3.404;2023-06-22T00:47:13;7.88;;;5.13;;
78322;SDS011;67583;50.616;-3.404;2023-06-22T00:49:41;10.20;;;5.63;;
78322;SDS011;67583;50.616;-3.404;2023-06-22T00:52:06;8.85;;;5.53;;
78322;SDS011;67583;50.616;-3.404;2023-06-22T00:57:04;9.13;;;5.45;;
78322;SDS011;67583;50.616;-3.404;2023-06-22T00:59:29;7.47;;;4.47;;
78322;SDS011;67583;50.616;-3.404;2023-06-22T01:01:55;5.90;;;4.80;;
78322;SDS011;67583;50.616;-3.404;2023-06-22T01:04:24;4.95;;;4.28;;
78322;SDS011;67583;50.616;-3.404;2023-06-22T01:06:54;6.97;;;5.03;;
78322;SDS011;67583;50.616;-3.404;2023-06-22T01:09:31;6.90;;;5.13;;
78322;SDS011;67583;50.616;-3.404;2023-06-22T01:12:00;9.10;;;5.68;;
78322;SDS011;67583;50.616;-3.404;2023-06-22T01:16:53;8.93;;;5.40;;
78322;SDS011;67583;50.616;-3.404;2023-06-22T01:22:06;9.40;;;5.97;;
78322;SDS011;67583;50.616;-3.404;2023-06-22T01:30:14;7.65;;;5.38;;
78322;SDS011;67583;50.616;-3.404;2023-06-22T01:32:41;6.57;;;5.10;;
78322;SDS011;67583;50.616;-3.404;2023-06-22T01:35:07;11.07;;;5.40;;
78322;SDS011;67583;50.616;-3.404;2023-06-22T01:37:34;7.85;;;5.82;;
78322;SDS011;67583;50.616;-3.404;2023-06-22T01:40:00;7.30;;;5.25;;
78322;SDS011;67583;50.616;-3.404;2023-06-22T01:42:26;9.05;;;5.82;;
78322;SDS011;67583;50.616;-3.404;2023-06-22T01:44:52;9.35;;;5.88;;
78322;SDS011;67583;50.616;-3.404;2023-06-22T01:47:19;6.68;;;5.53;;
78322;SDS011;67583;50.616;-3.404;2023-06-22T01:49:45;9.43;;;6.13;;
78322;SDS011;67583;50.616;-3.404;2023-06-22T01:52:11;7.75;;;5.53;;
78322;SDS011;67583;50.616;-3.404;2023-06-22T01:54:37;10.18;;;6.25;;
78322;SDS011;67583;50.616;-3.404;2023-06-22T01:57:03;6.90;;;4.55;;
78322;SDS011;67583;50.616;-3.404;2023-06-22T01:59:32;7.05;;;5.95;;
78322;SDS011;67583;50.616;-3.404;2023-06-22T02:02:01;7.60;;;5.70;;
78322;SDS011;67583;50.616;-3.404;2023-06-22T02:04:36;7.72;;;5.43;;
78322;SDS011;67583;50.616;-3.404;2023-06-22T02:07:14;8.73;;;5.00;;
78322;SDS011;67583;50.616;-3.404;2023-06-22T02:09:42;7.45;;;5.22;;
78322;SDS011;67583;50.616;-3.404;2023-06-22T02:12:09;6.38;;;4.82;;
78322;SDS011;67583;50.616;-3.404;2023-06-22T02:14:35;7.53;;;4.50;;
78322;SDS011;67583;50.616;-3.404;2023-06-22T02:17:01;7.18;;;4.93;;
78322;SDS011;67583;50.616;-3.404;2023-06-22T02:19:27;7.80;;;5.10;;
78322;SDS011;67583;50.616;-3.404;2023-06-22T02:21:55;6.35;;;4.80;;
78322;SDS011;67583;50.616;-3.404;2023-06-22T02:24:21;6.45;;;4.70;;
78322;SDS011;67583;50.616;-3.404;2023-06-22T02:26:48;6.90;;;4.70;;
78322;SDS011;67583;50.616;-3.404;2023-06-22T02:29:14;7.90;;;5.72;;
78322;SDS011;67583;50.616;-3.404;2023-06-22T02:31:39;9.50;;;5.57;;
78322;SDS011;67583;50.616;-3.404;2023-06-22T02:34:05;8.52;;;5.72;;
78322;SDS011;67583;50.616;-3.404;2023-06-22T02:36:30;6.15;;;4.75;;
78322;SDS011;67583;50.616;-3.404;2023-06-22T02:38:58;12.90;;;6.28;;
78322;SDS011;67583;50.616;-3.404;2023-06-22T02:41:27;10.48;;;5.60;;
78322;SDS011;67583;50.616;-3.404;2023-06-22T02:43:52;9.50;;;6.00;;
78322;SDS011;67583;50.616;-3.404;2023-06-22T02:46:18;8.95;;;5.38;;
78322;SDS011;67583;50.616;-3.404;2023-06-22T02:48:43;8.80;;;5.47;;
78322;SDS011;67583;50.616;-3.404;2023-06-22T02:51:09;7.00;;;5.20;;
78322;SDS011;67583;50.616;-3.404;2023-06-22T02:53:34;9.38;;;5.60;;
78322;SDS011;67583;50.616;-3.404;2023-06-22T02:56:01;10.15;;;5.57;;
78322;SDS011;67583;50.616;-3.404;2023-06-22T02:58:28;8.98;;;6.10;;
78322;SDS011;67583;50.616;-3.404;2023-06-22T03:00:53;8.18;;;5.60;;
78322;SDS011;67583;50.616;-3.404;2023-06-22T03:03:19;8.07;;;5.32;;
78322;SDS011;67583;50.616;-3.404;2023-06-22T03:05:44;8.15;;;5.30;;
78322;SDS011;67583;50.616;-3.404;2023-06-22T03:08:10;9.35;;;6.50;;
78322;SDS011;67583;50.616;-3.404;2023-06-22T03:10:35;9.70;;;5.20;;
78322;SDS011;67583;50.616;-3.404;2023-06-22T03:13:01;6.93;;;5.75;;
78322;SDS011;67583;50.616;-3.404;2023-06-22T03:15:26;6.78;;;4.95;;
78322;SDS011;67583;50.616;-3.404;2023-06-22T03:17:54;9.55;;;6.25;;
78322;SDS011;67583;50.616;-3.404;2023-06-22T03:20:20;9.10;;;6.22;;
78322;SDS011;67583;50.616;-3.404;2023-06-22T03:22:45;9.32;;;6.38;;
78322;SDS011;67583;50.616;-3.404;2023-06-22T03:25:10;8.70;;;5.40;;
78322;SDS011;67583;50.616;-3.404;2023-06-22T03:27:38;7.03;;;5.45;;
78322;SDS011;67583;50.616;-3.404;2023-06-22T03:30:04;7.38;;;5.40;;
78322;SDS011;67583;50.616;-3.404;2023-06-22T03:32:30;9.73;;;6.28;;
78322;SDS011;67583;50.616;-3.404;2023-06-22T03:34:55;9.23;;;5.60;;
78322;SDS011;67583;50.616;-3.404;2023-06-22T03:37:24;8.43;;;5.30;;
78322;SDS011;67583;50.616;-3.404;2023-06-22T03:39:49;9.02;;;6.03;;
78322;SDS011;67583;50.616;-3.404;2023-06-22T03:42:15;9.20;;;6.90;;
78322;SDS011;67583;50.616;-3.404;2023-06-22T03:44:41;8.82;;;5.35;;
78322;SDS011;67583;50.616;-3.404;2023-06-22T03:47:06;7.53;;;5.35;;
78322;SDS011;67583;50.616;-3.404;2023-06-22T03:49:32;9.57;;;5.93;;
78322;SDS011;67583;50.616;-3.404;2023-06-22T03:51:59;10.50;;;6.38;;
78322;SDS011;67583;50.616;-3.404;2023-06-22T03:54:25;9.13;;;7.10;;
78322;SDS011;67583;50.616;-3.404;2023-06-22T03:56:51;7.45;;;5.55;;
78322;SDS011;67583;50.616;-3.404;2023-06-22T03:59:16;9.20;;;6.22;;
78322;SDS011;67583;50.616;-3.404;2023-06-22T04:01:41;8.80;;;6.03;;
78322;SDS011;67583;50.616;-3.404;2023-06-22T04:04:07;11.70;;;6.82;;
78322;SDS011;67583;50.616;-3.404;2023-06-22T04:06:32;9.10;;;6.63;;
78322;SDS011;67583;50.616;-3.404;2023-06-22T04:08:59;10.07;;;5.90;;
78322;SDS011;67583;50.616;-3.404;2023-06-22T04:11:25;9.75;;;6.53;;
78322;SDS011;67583;50.616;-3.404;2023-06-22T04:13:51;9.77;;;5.90;;
78322;SDS011;67583;50.616;-3.404;2023-06-22T04:16:17;9.27;;;6.20;;
78322;SDS011;67583;50.616;-3.404;2023-06-22T04:18:42;8.13;;;5.80;;
78322;SDS011;67583;50.616;-3.404;2023-06-22T04:21:07;9.05;;;5.30;;
78322;SDS011;67583;50.616;-3.404;2023-06-22T04:23:33;12.35;;;8.07;;
78322;SDS011;67583;50.616;-3.404;2023-06-22T04:25:58;10.60;;;6.57;;
78322;SDS011;67583;50.616;-3.404;2023-06-22T04:28:26;8.45;;;5.88;;
78322;SDS011;67583;50.616;-3.404;2023-06-22T04:30:52;13.90;;;7.68;;
78322;SDS011;67583;50.616;-3.404;2023-06-22T04:33:17;9.80;;;6.47;;
78322;SDS011;67583;50.616;-3.404;2023-06-22T04:35:46;10.30;;;6.80;;
78322;SDS011;67583;50.616;-3.404;2023-06-22T04:38:12;9.73;;;5.63;;
78322;SDS011;67583;50.616;-3.404;2023-06-22T04:40:38;15.30;;;8.43;;
78322;SDS011;67583;50.616;-3.404;2023-06-22T04:43:04;16.17;;;8.00;;
78322;SDS011;67583;50.616;-3.404;2023-06-22T04:45:31;12.35;;;8.00;;
78322;SDS011;67583;50.616;-3.404;2023-06-22T04:48:02;12.73;;;7.72;;
78322;SDS011;67583;50.616;-3.404;2023-06-22T04:50:28;12.68;;;7.95;;
78322;SDS011;67583;50.616;-3.404;2023-06-22T04:52:54;12.30;;;8.68;;
78322;SDS011;67583;50.616;-3.404;2023-06-22T04:55:19;16.05;;;9.77;;
78322;SDS011;67583;50.616;-3.404;2023-06-22T04:57:45;11.52;;;7.65;;
78322;SDS011;67583;50.616;-3.404;2023-06-22T05:00:22;11.63;;;7.75;;
78322;SDS011;67583;50.616;-3.404;2023-06-22T05:02:48;15.13;;;8.23;;
78322;SDS011;67583;50.616;-3.404;2023-06-22T05:05:14;15.43;;;10.55;;
78322;SDS011;67583;50.616;-3.404;2023-06-22T05:07:44;14.55;;;9.55;;
78322;SDS011;67583;50.616;-3.404;2023-06-22T05:10:13;13.43;;;9.07;;
78322;SDS011;67583;50.616;-3.404;2023-06-22T05:12:39;14.00;;;9.70;;
78322;SDS011;67583;50.616;-3.404;2023-06-22T05:15:05;13.20;;;9.75;;
78322;SDS011;67583;50.616;-3.404;2023-06-22T05:17:32;11.27;;;8.60;;
78322;SDS011;67583;50.616;-3.404;2023-06-22T05:19:57;11.10;;;8.13;;
78322;SDS011;67583;50.616;-3.404;2023-06-22T05:22:22;17.77;;;9.60;;
78322;SDS011;67583;50.616;-3.404;2023-06-22T05:24:48;12.68;;;8.52;;
78322;SDS011;67583;50.616;-3.404;2023-06-22T05:27:14;12.82;;;8.55;;
78322;SDS011;67583;50.616;-3.404;2023-06-22T05:29:39;13.38;;;9.13;;
78322;SDS011;67583;50.616;-3.404;2023-06-22T05:32:05;10.32;;;7.70;;
78322;SDS011;67583;50.616;-3.404;2023-06-22T05:34:30;12.32;;;9.50;;
78322;SDS011;67583;50.616;-3.404;2023-06-22T05:36:56;12.50;;;8.38;;
78322;SDS011;67583;50.616;-3.404;2023-06-22T05:39:24;11.98;;;7.80;;
78322;SDS011;67583;50.616;-3.404;2023-06-22T05:41:49;11.98;;;8.23;;
78322;SDS011;67583;50.616;-3.404;2023-06-22T05:44:14;13.80;;;8.70;;
78322;SDS011;67583;50.616;-3.404;2023-06-22T05:46:40;13.32;;;8.45;;
78322;SDS011;67583;50.616;-3.404;2023-06-22T05:49:13;12.18;;;9.52;;
78322;SDS011;67583;50.616;-3.404;2023-06-22T05:51:39;12.93;;;8.13;;
78322;SDS011;67583;50.616;-3.404;2023-06-22T05:54:04;14.43;;;8.63;;
78322;SDS011;67583;50.616;-3.404;2023-06-22T05:56:30;13.00;;;7.35;;
78322;SDS011;67583;50.616;-3.404;2023-06-22T05:58:55;12.00;;;7.97;;
78322;SDS011;67583;50.616;-3.404;2023-06-22T06:01:21;16.55;;;8.68;;
78322;SDS011;67583;50.616;-3.404;2023-06-22T06:03:46;9.57;;;6.45;;
78322;SDS011;67583;50.616;-3.404;2023-06-22T06:06:14;13.13;;;8.93;;
78322;SDS011;67583;50.616;-3.404;2023-06-22T06:08:40;15.63;;;8.55;;
78322;SDS011;67583;50.616;-3.404;2023-06-22T06:11:06;13.52;;;8.30;;
78322;SDS011;67583;50.616;-3.404;2023-06-22T06:13:31;12.32;;;8.13;;
78322;SDS011;67583;50.616;-3.404;2023-06-22T06:15:57;11.88;;;7.10;;
78322;SDS011;67583;50.616;-3.404;2023-06-22T06:18:22;12.75;;;7.70;;
78322;SDS011;67583;50.616;-3.404;2023-06-22T06:20:48;16.50;;;8.60;;
78322;SDS011;67583;50.616;-3.404;2023-06-22T06:23:13;8.93;;;6.03;;
78322;SDS011;67583;50.616;-3.404;2023-06-22T06:25:39;12.00;;;7.43;;
78322;SDS011;67583;50.616;-3.404;2023-06-22T06:28:04;13.80;;;8.57;;
78322;SDS011;67583;50.616;-3.404;2023-06-22T06:30:30;8.60;;;6.47;;
78322;SDS011;67583;50.616;-3.404;2023-06-22T06:32:55;13.20;;;8.13;;
78322;SDS011;67583;50.616;-3.404;2023-06-22T06:35:20;10.57;;;7.82;;
78322;SDS011;67583;50.616;-3.404;2023-06-22T06:37:47;12.00;;;7.53;;
78322;SDS011;67583;50.616;-3.404;2023-06-22T06:40:13;12.75;;;7.50;;
78322;SDS011;67583;50.616;-3.404;2023-06-22T06:42:40;13.35;;;8.07;;
78322;SDS011;67583;50.616;-3.404;2023-06-22T06:45:09;10.95;;;7.13;;
78322;SDS011;67583;50.616;-3.404;2023-06-22T06:47:40;12.75;;;7.35;;
78322;SDS011;67583;50.616;-3.404;2023-06-22T06:50:06;10.85;;;7.03;;
78322;SDS011;67583;50.616;-3.404;2023-06-22T06:52:32;10.32;;;8.10;;
78322;SDS011;67583;50.616;-3.404;2023-06-22T06:54:58;9.90;;;6.70;;
78322;SDS011;67583;50.616;-3.404;2023-06-22T06:57:23;8.32;;;6.35;;
78322;SDS011;67583;50.616;-3.404;2023-06-22T06:59:49;9.60;;;5.72;;
78322;SDS011;67583;50.616;-3.404;2023-06-22T07:02:15;8.13;;;5.70;;
78322;SDS011;67583;50.616;-3.404;2023-06-22T07:04:41;7.35;;;5.80;;
78322;SDS011;67583;50.616;-3.404;2023-06-22T07:07:06;7.68;;;4.97;;
78322;SDS011;67583;50.616;-3.404;2023-06-22T07:09:32;7.05;;;5.30;;
78322;SDS011;67583;50.616;-3.404;2023-06-22T07:11:57;5.97;;;4.20;;
78322;SDS011;67583;50.616;-3.404;2023-06-22T07:14:23;5.15;;;4.13;;
78322;SDS011;67583;50.616;-3.404;2023-06-22T07:16:49;6.55;;;4.60;;
78322;SDS011;67583;50.616;-3.404;2023-06-22T07:19:14;5.82;;;4.85;;
78322;SDS011;67583;50.616;-3.404;2023-06-22T07:21:39;5.20;;;3.97;;
78322;SDS011;67583;50.616;-3.404;2023-06-22T07:24:05;5.15;;;3.95;;
78322;SDS011;67583;50.616;-3.404;2023-06-22T07:26:31;7.32;;;5.15;;
78322;SDS011;67583;50.616;-3.404;2023-06-22T07:28:57;7.38;;;5.40;;
78322;SDS011;67583;50.616;-3.404;2023-06-22T07:31:25;5.32;;;4.00;;
78322;SDS011;67583;50.616;-3.404;2023-06-22T07:33:51;6.60;;;5.00;;
78322;SDS011;67583;50.616;-3.404;2023-06-22T07:36:17;6.93;;;4.38;;
78322;SDS011;67583;50.616;-3.404;2023-06-22T07:38:43;5.03;;;3.83;;
78322;SDS011;67583;50.616;-3.404;2023-06-22T07:41:08;4.55;;;3.80;;
78322;SDS011;67583;50.616;-3.404;2023-06-22T07:43:34;4.55;;;3.35;;
78322;SDS011;67583;50.616;-3.404;2023-06-22T07:46:02;4.28;;;3.40;;
78322;SDS011;67583;50.616;-3.404;2023-06-22T07:48:28;4.68;;;3.03;;
78322;SDS011;67583;50.616;-3.404;2023-06-22T07:50:53;3.28;;;2.63;;
78322;SDS011;67583;50.616;-3.404;2023-06-22T07:53:20;3.92;;;2.90;;
78322;SDS011;67583;50.616;-3.404;2023-06-22T07:55:45;4.07;;;3.13;;
78322;SDS011;67583;50.616;-3.404;2023-06-22T07:58:11;3.22;;;2.55;;
78322;SDS011;67583;50.616;-3.404;2023-06-22T08:00:37;3.13;;;2.13;;
78322;SDS011;67583;50.616;-3.404;2023-06-22T08:03:02;3.95;;;2.67;;
78322;SDS011;67583;50.616;-3.404;2023-06-22T08:05:30;5.43;;;2.97;;
78322;SDS011;67583;50.616;-3.404;2023-06-22T08:07:55;5.30;;;3.30;;
78322;SDS011;67583;50.616;-3.404;2023-06-22T08:10:21;4.18;;;2.90;;
78322;SDS011;67583;50.616;-3.404;2023-06-22T08:12:46;4.22;;;2.80;;
78322;SDS011;67583;50.616;-3.404;2023-06-22T08:15:12;4.90;;;2.92;;
78322;SDS011;67583;50.616;-3.404;2023-06-22T08:17:37;3.25;;;2.78;;
78322;SDS011;67583;50.616;-3.404;2023-06-22T08:20:04;5.85;;;2.90;;
78322;SDS011;67583;50.616;-3.404;2023-06-22T08:22:36;4.47;;;3.33;;
78322;SDS011;67583;50.616;-3.404;2023-06-22T08:25:02;4.18;;;2.55;;
78322;SDS011;67583;50.616;-3.404;2023-06-22T08:27:29;4.25;;;3.10;;
78322;SDS011;67583;50.616;-3.404;2023-06-22T08:29:56;4.88;;;2.75;;
78322;SDS011;67583;50.616;-3.404;2023-06-22T08:32:23;5.05;;;2.97;;
78322;SDS011;67583;50.616;-3.404;2023-06-22T08:34:53;6.30;;;2.83;;
78322;SDS011;67583;50.616;-3.404;2023-06-22T08:37:19;4.43;;;2.72;;
78322;SDS011;67583;50.616;-3.404;2023-06-22T08:39:44;4.13;;;2.65;;
78322;SDS011;67583;50.616;-3.404;2023-06-22T08:42:10;3.65;;;2.20;;
78322;SDS011;67583;50.616;-3.404;2023-06-22T08:44:35;2.95;;;2.42;;
78322;SDS011;67583;50.616;-3.404;2023-06-22T08:47:00;3.90;;;2.72;;
78322;SDS011;67583;50.616;-3.404;2023-06-22T08:49:27;4.60;;;2.45;;
78322;SDS011;67583;50.616;-3.404;2023-06-22T08:51:52;3.55;;;2.53;;
78322;SDS011;67583;50.616;-3.404;2023-06-22T08:54:21;2.97;;;2.67;;
78322;SDS011;67583;50.616;-3.404;2023-06-22T08:56:46;2.97;;;2.40;;
78322;SDS011;67583;50.616;-3.404;2023-06-22T08:59:11;3.13;;;2.00;;
78322;SDS011;67583;50.616;-3.404;2023-06-22T09:01:37;4.05;;;2.65;;
78322;SDS011;67583;50.616;-3.404;2023-06-22T09:04:02;3.50;;;2.60;;
78322;SDS011;67583;50.616;-3.404;2023-06-22T09:06:31;4.13;;;2.50;;
78322;SDS011;67583;50.616;-3.404;2023-06-22T09:08:56;5.25;;;2.60;;
78322;SDS011;67583;50.616;-3.404;2023-06-22T09:11:24;3.88;;;2.50;;
78322;SDS011;67583;50.616;-3.404;2023-06-22T09:13:50;2.90;;;2.40;;
78322;SDS011;67583;50.616;-3.404;2023-06-22T09:16:15;2.80;;;2.38;;
78322;SDS011;67583;50.616;-3.404;2023-06-22T09:18:41;4.38;;;2.70;;
78322;SDS011;67583;50.616;-3.404;2023-06-22T09:21:06;4.15;;;3.03;;
78322;SDS011;67583;50.616;-3.404;2023-06-22T09:23:32;4.63;;;2.60;;
78322;SDS011;67583;50.616;-3.404;2023-06-22T09:25:57;4.60;;;2.40;;
78322;SDS011;67583;50.616;-3.404;2023-06-22T09:28:23;4.40;;;2.60;;
78322;SDS011;67583;50.616;-3.404;2023-06-22T09:30:48;2.85;;;2.20;;
78322;SDS011;67583;50.616;-3.404;2023-06-22T09:33:13;3.22;;;2.42;;
78322;SDS011;67583;50.616;-3.404;2023-06-22T09:35:39;3.08;;;2.45;;
78322;SDS011;67583;50.616;-3.404;2023-06-22T09:38:04;3.85;;;2.65;;
78322;SDS011;67583;50.616;-3.404;2023-06-22T09:40:30;4.03;;;2.95;;
78322;SDS011;67583;50.616;-3.404;2023-06-22T09:42:57;3.17;;;2.40;;
78322;SDS011;67583;50.616;-3.404;2023-06-22T09:45:23;6.82;;;2.90;;
78322;SDS011;67583;50.616;-3.404;2023-06-22T09:47:48;4.70;;;2.30;;
78322;SDS011;67583;50.616;-3.404;2023-06-22T09:50:14;3.97;;;2.70;;
78322;SDS011;67583;50.616;-3.404;2023-06-22T09:52:39;3.83;;;2.80;;
78322;SDS011;67583;50.616;-3.404;2023-06-22T09:55:05;5.45;;;2.90;;
78322;SDS011;67583;50.616;-3.404;2023-06-22T09:57:30;2.95;;;2.28;;
78322;SDS011;67583;50.616;-3.404;2023-06-22T09:59:56;5.10;;;2.60;;
78322;SDS011;67583;50.616;-3.404;2023-06-22T10:02:21;3.78;;;2.55;;
78322;SDS011;67583;50.616;-3.404;2023-06-22T10:04:47;3.67;;;2.30;;
78322;SDS011;67583;50.616;-3.404;2023-06-22T10:07:12;4.03;;;2.53;;
78322;SDS011;67583;50.616;-3.404;2023-06-22T10:09:38;4.78;;;2.53;;
78322;SDS011;67583;50.616;-3.404;2023-06-22T10:12:03;3.55;;;2.53;;
78322;SDS011;67583;50.616;-3.404;2023-06-22T10:14:29;3.05;;;2.17;;
78322;SDS011;67583;50.616;-3.404;2023-06-22T10:16:54;3.90;;;2.90;;
78322;SDS011;67583;50.616;-3.404;2023-06-22T10:19:20;4.13;;;2.60;;
78322;SDS011;67583;50.616;-3.404;2023-06-22T10:21:45;3.42;;;2.53;;
78322;SDS011;67583;50.616;-3.404;2023-06-22T10:24:11;4.57;;;3.38;;
78322;SDS011;67583;50.616;-3.404;2023-06-22T10:26:36;3.70;;;2.63;;
78322;SDS011;67583;50.616;-3.404;2023-06-22T10:29:02;3.42;;;2.55;;
78322;SDS011;67583;50.616;-3.404;2023-06-22T10:31:28;3.65;;;2.78;;
78322;SDS011;67583;50.616;-3.404;2023-06-22T10:33:54;3.03;;;2.38;;
78322;SDS011;67583;50.616;-3.404;2023-06-22T10:36:20;3.80;;;2.50;;
78322;SDS011;67583;50.616;-3.404;2023-06-22T10:38:46;3.95;;;2.83;;
78322;SDS011;67583;50.616;-3.404;2023-06-22T10:41:12;3.55;;;2.45;;
78322;SDS011;67583;50.616;-3.404;2023-06-22T10:43:38;2.50;;;2.03;;
78322;SDS011;67583;50.616;-3.404;2023-06-22T10:46:03;3.67;;;2.45;;
78322;SDS011;67583;50.616;-3.404;2023-06-22T10:48:29;8.90;;;2.45;;
78322;SDS011;67583;50.616;-3.404;2023-06-22T10:50:54;4.10;;;2.40;;
78322;SDS011;67583;50.616;-3.404;2023-06-22T10:53:20;4.95;;;2.40;;
78322;SDS011;67583;50.616;-3.404;2023-06-22T10:55:46;2.92;;;2.30;;
78322;SDS011;67583;50.616;-3.404;2023-06-22T10:58:11;4.13;;;2.40;;
78322;SDS011;67583;50.616;-3.404;2023-06-22T11:00:37;4.95;;;2.42;;
78322;SDS011;67583;50.616;-3.404;2023-06-22T11:03:02;4.63;;;2.40;;
78322;SDS011;67583;50.616;-3.404;2023-06-22T11:05:28;3.25;;;2.20;;
78322;SDS011;67583;50.616;-3.404;2023-06-22T11:07:53;2.90;;;2.33;;
78322;SDS011;67583;50.616;-3.404;2023-06-22T11:10:18;5.05;;;3.50;;
78322;SDS011;67583;50.616;-3.404;2023-06-22T11:12:44;5.20;;;3.50;;
78322;SDS011;67583;50.616;-3.404;2023-06-22T11:15:09;4.20;;;3.72;;
78322;SDS011;67583;50.616;-3.404;2023-06-22T11:17:35;5.85;;;3.70;;
78322;SDS011;67583;50.616;-3.404;2023-06-22T11:20:00;4.30;;;2.67;;
78322;SDS011;67583;50.616;-3.404;2023-06-22T11:22:26;4.40;;;2.67;;
78322;SDS011;67583;50.616;-3.404;2023-06-22T11:24:52;4.50;;;3.33;;
78322;SDS011;67583;50.616;-3.404;2023-06-22T11:27:17;6.68;;;3.60;;
78322;SDS011;67583;50.616;-3.404;2023-06-22T11:29:42;5.75;;;3.63;;
78322;SDS011;67583;50.616;-3.404;2023-06-22T11:32:08;4.75;;;3.33;;
78322;SDS011;67583;50.616;-3.404;2023-06-22T11:34:34;3.78;;;3.25;;
78322;SDS011;67583;50.616;-3.404;2023-06-22T11:36:59;5.38;;;3.80;;
78322;SDS011;67583;50.616;-3.404;2023-06-22T11:39:25;3.80;;;3.00;;
78322;SDS011;67583;50.616;-3.404;2023-06-22T11:41:50;6.70;;;3.33;;
78322;SDS011;67583;50.616;-3.404;2023-06-22T11:44:16;5.40;;;3.13;;
78322;SDS011;67583;50.616;-3.404;2023-06-22T11:46:41;4.25;;;3.10;;
78322;SDS011;67583;50.616;-3.404;2023-06-22T11:49:07;4.55;;;2.88;;
78322;SDS011;67583;50.616;-3.404;2023-06-22T11:51:33;4.55;;;3.20;;
78322;SDS011;67583;50.616;-3.404;2023-06-22T11:53:58;4.15;;;3.22;;
78322;SDS011;67583;50.616;-3.404;2023-06-22T11:56:23;4.05;;;2.90;;
78322;SDS011;67583;50.616;-3.404;2023-06-22T11:58:49;5.25;;;3.20;;
78322;SDS011;67583;50.616;-3.404;2023-06-22T12:01:14;8.48;;;2.92;;
78322;SDS011;67583;50.616;-3.404;2023-06-22T12:03:40;3.72;;;3.25;;
78322;SDS011;67583;50.616;-3.404;2023-06-22T12:06:08;5.28;;;3.00;;
78322;SDS011;67583;50.616;-3.404;2023-06-22T12:08:33;6.60;;;3.10;;
78322;SDS011;67583;50.616;-3.404;2023-06-22T12:11:00;3.83;;;3.00;;
78322;SDS011;67583;50.616;-3.404;2023-06-22T12:13:25;6.85;;;3.75;;
78322;SDS011;67583;50.616;-3.404;2023-06-22T12:15:51;6.57;;;2.83;;
78322;SDS011;67583;50.616;-3.404;2023-06-22T12:18:17;3.95;;;2.85;;
78322;SDS011;67583;50.616;-3.404;2023-06-22T12:20:45;5.20;;;3.03;;
78322;SDS011;67583;50.616;-3.404;2023-06-22T12:23:11;5.60;;;3.17;;
78322;SDS011;67583;50.616;-3.404;2023-06-22T12:25:36;4.63;;;2.67;;
78322;SDS011;67583;50.616;-3.404;2023-06-22T12:28:02;5.47;;;3.05;;
78322;SDS011;67583;50.616;-3.404;2023-06-22T12:30:27;3.60;;;2.72;;
78322;SDS011;67583;50.616;-3.404;2023-06-22T12:32:53;6.93;;;3.10;;
78322;SDS011;67583;50.616;-3.404;2023-06-22T12:35:18;4.57;;;3.13;;
78322;SDS011;67583;50.616;-3.404;2023-06-22T12:37:43;4.97;;;2.80;;
78322;SDS011;67583;50.616;-3.404;2023-06-22T12:40:09;9.05;;;3.60;;
78322;SDS011;67583;50.616;-3.404;2023-06-22T12:42:35;5.97;;;3.03;;
78322;SDS011;67583;50.616;-3.404;2023-06-22T12:45:00;4.22;;;2.78;;
78322;SDS011;67583;50.616;-3.404;2023-06-22T12:47:26;5.22;;;2.78;;
78322;SDS011;67583;50.616;-3.404;2023-06-22T12:49:51;10.10;;;3.28;;
78322;SDS011;67583;50.616;-3.404;2023-06-22T12:52:16;5.47;;;3.15;;
78322;SDS011;67583;50.616;-3.404;2023-06-22T12:54:42;5.03;;;2.83;;
78322;SDS011;67583;50.616;-3.404;2023-06-22T12:57:07;5.20;;;2.83;;
78322;SDS011;67583;50.616;-3.404;2023-06-22T12:59:33;4.45;;;3.08;;
78322;SDS011;67583;50.616;-3.404;2023-06-22T13:01:58;5.30;;;3.40;;
78322;SDS011;67583;50.616;-3.404;2023-06-22T13:04:23;5.63;;;3.03;;
78322;SDS011;67583;50.616;-3.404;2023-06-22T13:06:49;5.20;;;3.30;;
78322;SDS011;67583;50.616;-3.404;2023-06-22T13:09:15;5.80;;;3.17;;
78322;SDS011;67583;50.616;-3.404;2023-06-22T13:11:41;7.25;;;3.45;;
78322;SDS011;67583;50.616;-3.404;2023-06-22T13:14:07;5.70;;;3.40;;
78322;SDS011;67583;50.616;-3.404;2023-06-22T13:16:32;4.38;;;3.20;;
78322;SDS011;67583;50.616;-3.404;2023-06-22T13:18:57;6.70;;;3.42;;
78322;SDS011;67583;50.616;-3.404;2023-06-22T13:21:23;6.00;;;3.15;;
78322;SDS011;67583;50.616;-3.404;2023-06-22T13:23:48;5.97;;;3.40;;
78322;SDS011;67583;50.616;-3.404;2023-06-22T13:26:13;6.15;;;3.30;;
78322;SDS011;67583;50.616;-3.404;2023-06-22T13:28:39;4.40;;;3.15;;
78322;SDS011;67583;50.616;-3.404;2023-06-22T13:31:04;12.18;;;4.15;;
78322;SDS011;67583;50.616;-3.404;2023-06-22T13:33:30;5.47;;;2.97;;
78322;SDS011;67583;50.616;-3.404;2023-06-22T13:35:56;6.03;;;2.80;;
78322;SDS011;67583;50.616;-3.404;2023-06-22T13:38:21;4.45;;;3.28;;
78322;SDS011;67583;50.616;-3.404;2023-06-22T13:40:47;3.92;;;3.38;;
78322;SDS011;67583;50.616;-3.404;2023-06-22T13:43:13;5.18;;;3.28;;
78322;SDS011;67583;50.616;-3.404;2023-06-22T13:45:38;4.82;;;3.00;;
78322;SDS011;67583;50.616;-3.404;2023-06-22T13:48:04;6.18;;;3.63;;
78322;SDS011;67583;50.616;-3.404;2023-06-22T13:50:29;5.55;;;2.90;;
78322;SDS011;67583;50.616;-3.404;2023-06-22T13:52:55;8.23;;;3.45;;
78322;SDS011;67583;50.616;-3.404;2023-06-22T13:55:21;4.90;;;3.38;;
78322;SDS011;67583;50.616;-3.404;2023-06-22T13:57:47;5.88;;;4.00;;
78322;SDS011;67583;50.616;-3.404;2023-06-22T14:00:12;7.90;;;3.28;;
78322;SDS011;67583;50.616;-3.404;2023-06-22T14:02:38;8.35;;;3.47;;
78322;SDS011;67583;50.616;-3.404;2023-06-22T14:05:07;5.00;;;3.20;;
78322;SDS011;67583;50.616;-3.404;2023-06-22T14:07:33;3.80;;;3.25;;
78322;SDS011;67583;50.616;-3.404;2023-06-22T14:09:59;5.30;;;3.10;;
78322;SDS011;67583;50.616;-3.404;2023-06-22T14:12:25;4.13;;;3.08;;
78322;SDS011;67583;50.616;-3.404;2023-06-22T14:14:50;5.63;;;3.42;;
78322;SDS011;67583;50.616;-3.404;2023-06-22T14:17:15;5.43;;;3.08;;
78322;SDS011;67583;50.616;-3.404;2023-06-22T14:19:41;4.88;;;2.97;;
78322;SDS011;67583;50.616;-3.404;2023-06-22T14:22:07;6.93;;;3.40;;
78322;SDS011;67583;50.616;-3.404;2023-06-22T14:24:32;5.25;;;3.42;;
78322;SDS011;67583;50.616;-3.404;2023-06-22T14:26:57;4.95;;;3.08;;
78322;SDS011;67583;50.616;-3.404;2023-06-22T14:29:23;4.60;;;2.88;;
78322;SDS011;67583;50.616;-3.404;2023-06-22T14:31:48;6.30;;;3.30;;
78322;SDS011;67583;50.616;-3.404;2023-06-22T14:34:14;4.75;;;2.80;;
78322;SDS011;67583;50.616;-3.404;2023-06-22T14:36:40;4.93;;;3.20;;